createdAt,value
2022-11-04T00:01:03.783Z,5.10
2022-11-04T00:03:32.505Z,5.28
2022-11-04T00:06:01.313Z,4.85
2022-11-04T00:08:28.690Z,5.30
2022-11-04T00:11:13.984Z,5.40
2022-11-04T00:13:42.101Z,5.57
2022-11-04T00:16:27.172Z,6.03
2022-11-04T00:18:55.890Z,4.85
2022-11-04T00:21:40.962Z,5.72
2022-11-04T00:24:28.296Z,5.55
2022-11-04T00:27:13.146Z,5.63
2022-11-04T00:29:40.563Z,5.18
2022-11-04T00:32:25.773Z,5.88
2022-11-04T00:34:54.427Z,5.10
2022-11-04T00:37:21.865Z,5.47
2022-11-04T00:39:49.220Z,5.82
2022-11-04T00:42:16.583Z,5.32
2022-11-04T00:44:43.995Z,5.40
2022-11-04T00:47:11.382Z,5.93
2022-11-04T00:49:38.746Z,5.47
2022-11-04T00:52:07.394Z,5.22
2022-11-04T00:54:34.751Z,5.75
2022-11-04T00:57:02.161Z,5.35
2022-11-04T00:59:29.545Z,5.47
2022-11-04T01:01:57.270Z,6.40
2022-11-04T01:04:24.694Z,5.47
2022-11-04T01:06:52.114Z,5.40
2022-11-04T01:09:20.840Z,5.75
2022-11-04T01:11:48.486Z,5.32
2022-11-04T01:14:16.110Z,6.18
2022-11-04T01:16:43.473Z,6.00
2022-11-04T01:19:11.036Z,6.05
2022-11-04T01:21:38.418Z,6.03
2022-11-04T01:24:06.212Z,5.45
2022-11-04T01:26:34.948Z,6.38
2022-11-04T01:29:02.290Z,5.43
2022-11-04T01:31:30.925Z,6.38
2022-11-04T01:33:59.077Z,5.72
2022-11-04T01:36:26.906Z,6.22
2022-11-04T01:38:55.554Z,5.70
2022-11-04T01:41:23.986Z,6.20
2022-11-04T01:43:53.426Z,6.40
2022-11-04T01:46:24.021Z,6.72
2022-11-04T01:48:52.244Z,6.82
2022-11-04T01:51:20.302Z,6.00
2022-11-04T01:53:49.908Z,6.18
2022-11-04T01:56:17.841Z,6.28
2022-11-04T01:58:47.178Z,6.85
2022-11-04T02:01:15.966Z,5.75
2022-11-04T02:03:47.018Z,6.38
2022-11-04T02:06:15.008Z,6.75
2022-11-04T02:08:43.004Z,6.65
2022-11-04T02:11:11.416Z,5.88
2022-11-04T02:13:37.840Z,5.88
2022-11-04T02:16:09.706Z,5.80
2022-11-04T02:18:45.009Z,6.38
2022-11-04T02:21:24.153Z,6.40
2022-11-04T02:24:03.582Z,5.72
2022-11-04T02:26:40.642Z,6.10
2022-11-04T02:29:21.102Z,6.18
2022-11-04T02:31:52.593Z,5.88
2022-11-04T02:34:22.882Z,6.28
2022-11-04T02:36:59.509Z,6.32
2022-11-04T02:39:33.724Z,7.38
2022-11-04T02:42:05.397Z,6.55
2022-11-04T02:44:36.453Z,6.50
2022-11-04T02:47:05.953Z,6.82
2022-11-04T02:49:36.953Z,6.40
2022-11-04T02:52:06.699Z,6.70
2022-11-04T02:54:37.272Z,6.10
2022-11-04T02:57:07.592Z,5.63
2022-11-04T02:59:37.995Z,6.53
2022-11-04T03:02:07.656Z,6.63
2022-11-04T03:04:38.204Z,6.95
2022-11-04T03:07:06.901Z,7.20
2022-11-04T03:09:35.751Z,6.78
2022-11-04T03:12:04.321Z,6.28
2022-11-04T03:14:36.021Z,6.00
2022-11-04T03:17:07.082Z,6.57
2022-11-04T03:19:39.837Z,6.88
2022-11-04T03:22:09.501Z,6.85
2022-11-04T03:24:36.902Z,6.50
2022-11-04T03:27:08.038Z,6.05
2022-11-04T03:32:08.902Z,6.05
2022-11-04T03:34:37.466Z,7.07
2022-11-04T03:37:04.928Z,6.57
2022-11-04T03:39:32.617Z,6.47
2022-11-04T03:42:01.518Z,6.47
2022-11-04T03:44:30.324Z,6.15
2022-11-04T03:46:58.034Z,6.80
2022-11-04T03:49:27.192Z,6.45
2022-11-04T03:51:54.576Z,6.40
2022-11-04T03:54:22.018Z,6.55
2022-11-04T03:57:20.180Z,6.63
2022-11-04T04:00:02.207Z,6.63
2022-11-04T04:02:35.554Z,6.43
2022-11-04T04:05:07.980Z,6.90
2022-11-04T04:07:36.833Z,6.68
2022-11-04T04:10:29.509Z,6.50
2022-11-04T04:12:58.842Z,6.75
2022-11-04T04:15:28.624Z,7.05
2022-11-04T04:17:57.179Z,7.65
2022-11-04T04:20:27.724Z,6.93
2022-11-04T04:22:56.585Z,6.15
2022-11-04T04:25:42.825Z,7.07
2022-11-04T04:28:11.768Z,6.75
2022-11-04T04:30:39.815Z,6.50
2022-11-04T04:33:09.047Z,6.45
2022-11-04T04:35:44.177Z,5.93
2022-11-04T04:38:34.393Z,6.13
2022-11-04T04:41:21.794Z,6.68
2022-11-04T04:44:06.508Z,5.82
2022-11-04T04:46:34.144Z,6.20
2022-11-04T04:49:05.021Z,6.13
2022-11-04T04:51:34.571Z,6.70
2022-11-04T04:54:01.915Z,6.97
2022-11-04T04:56:29.885Z,5.90
2022-11-04T04:58:57.291Z,6.35
2022-11-04T05:01:24.991Z,6.65
2022-11-04T05:03:52.439Z,5.65
2022-11-04T05:06:19.809Z,6.00
2022-11-04T05:08:48.543Z,6.28
2022-11-04T05:11:15.924Z,6.50
2022-11-04T05:13:43.333Z,7.00
2022-11-04T05:16:11.413Z,6.20
2022-11-04T05:18:38.821Z,6.43
2022-11-04T05:21:06.595Z,6.43
2022-11-04T05:23:34.108Z,7.05
2022-11-04T05:26:02.824Z,6.18
2022-11-04T05:28:30.344Z,7.22
2022-11-04T05:30:57.770Z,6.80
2022-11-04T05:33:25.184Z,7.03
2022-11-04T05:35:52.540Z,6.97
2022-11-04T05:38:19.919Z,7.47
2022-11-04T05:40:47.373Z,7.18
2022-11-04T05:43:16.064Z,7.03
2022-11-04T05:45:43.401Z,6.43
2022-11-04T05:48:10.780Z,7.05
2022-11-04T05:50:38.350Z,6.45
2022-11-04T05:53:05.887Z,6.68
2022-11-04T05:55:33.346Z,7.05
2022-11-04T05:58:00.749Z,6.50
2022-11-04T06:00:29.852Z,6.75
2022-11-04T06:02:58.176Z,6.75
2022-11-04T06:05:25.881Z,7.22
2022-11-04T06:07:53.282Z,6.53
2022-11-04T06:10:20.633Z,9.13
2022-11-04T06:12:48.030Z,7.07
2022-11-04T06:15:15.493Z,7.18
2022-11-04T06:17:44.233Z,7.88
2022-11-04T06:20:11.884Z,7.30
2022-11-04T06:22:39.234Z,7.15
2022-11-04T06:25:06.786Z,7.05
2022-11-04T06:27:34.131Z,7.60
2022-11-04T06:30:01.758Z,7.13
2022-11-04T06:32:29.115Z,8.45
2022-11-04T06:34:57.945Z,7.32
2022-11-04T06:37:25.309Z,8.13
2022-11-04T06:39:52.694Z,7.60
2022-11-04T06:42:20.088Z,7.20
2022-11-04T06:44:47.480Z,7.10
2022-11-04T06:47:14.843Z,7.50
2022-11-04T06:49:42.217Z,7.68
2022-11-04T06:52:10.886Z,7.63
2022-11-04T06:54:38.332Z,7.70
2022-11-04T06:57:05.750Z,7.57
2022-11-04T06:59:33.105Z,8.75
2022-11-04T07:02:00.598Z,7.65
2022-11-04T07:04:28.020Z,8.52
2022-11-04T07:06:55.377Z,7.63
2022-11-04T07:09:24.068Z,7.07
2022-11-04T07:11:51.424Z,7.53
2022-11-04T07:14:18.760Z,7.60
2022-11-04T07:16:46.185Z,8.10
2022-11-04T07:19:13.629Z,7.70
2022-11-04T07:21:41.034Z,7.78
2022-11-04T07:24:08.445Z,8.15
2022-11-04T07:26:37.276Z,9.15
2022-11-04T07:29:06.582Z,8.10
2022-11-04T07:31:34.224Z,8.60
2022-11-04T07:34:02.978Z,7.97
2022-11-04T07:36:30.501Z,7.70
2022-11-04T07:38:57.835Z,9.00
2022-11-04T07:41:25.209Z,9.23
2022-11-04T07:43:54.856Z,8.20
2022-11-04T07:46:22.540Z,9.57
2022-11-04T07:48:49.920Z,8.85
2022-11-04T07:51:19.227Z,9.00
2022-11-04T07:53:46.629Z,9.75
2022-11-04T07:56:14.491Z,9.07
2022-11-04T07:58:42.080Z,9.32
2022-11-04T08:01:11.792Z,8.93
2022-11-04T08:03:39.481Z,9.07
2022-11-04T08:06:07.678Z,8.32
2022-11-04T08:08:35.399Z,8.18
2022-11-04T08:11:04.529Z,8.23
2022-11-04T08:13:32.651Z,7.90
2022-11-04T08:16:02.290Z,8.48
2022-11-04T08:18:31.357Z,8.38
2022-11-04T08:20:58.890Z,8.05
2022-11-04T08:23:26.433Z,8.48
2022-11-04T08:25:53.808Z,7.90
2022-11-04T08:28:21.321Z,7.95
2022-11-04T08:30:54.994Z,8.10
2022-11-04T08:33:22.733Z,7.72
2022-11-04T08:35:51.602Z,8.35
2022-11-04T08:38:18.973Z,9.32
2022-11-04T08:40:46.373Z,7.70
2022-11-04T08:43:13.789Z,8.93
2022-11-04T08:45:42.050Z,8.48
2022-11-04T08:48:09.812Z,8.25
2022-11-04T08:50:37.468Z,8.32
2022-11-04T08:53:07.169Z,7.68
2022-11-04T08:55:35.143Z,8.45
2022-11-04T08:58:03.018Z,7.57
2022-11-04T09:00:30.410Z,7.45
2022-11-04T09:02:57.774Z,8.15
2022-11-04T09:05:25.158Z,7.68
2022-11-04T09:07:52.538Z,7.78
2022-11-04T09:10:21.301Z,7.75
2022-11-04T09:12:48.749Z,7.72
2022-11-04T09:15:16.199Z,7.22
2022-11-04T09:17:44.661Z,7.20
2022-11-04T09:20:12.588Z,7.65
2022-11-04T09:22:45.466Z,6.90
2022-11-04T09:25:13.228Z,7.32
2022-11-04T09:27:41.975Z,6.93
2022-11-04T09:30:10.003Z,6.55
2022-11-04T09:32:37.365Z,6.57
2022-11-04T09:35:06.224Z,6.22
2022-11-04T09:37:33.615Z,5.93
2022-11-04T09:40:00.949Z,5.95
2022-11-04T09:42:37.353Z,5.60
2022-11-04T09:45:26.012Z,5.85
2022-11-04T09:47:56.136Z,5.28
2022-11-04T09:50:25.275Z,4.40
2022-11-04T09:52:55.709Z,5.70
2022-11-04T09:55:27.009Z,4.63
2022-11-04T09:57:55.533Z,4.07
2022-11-04T10:00:24.300Z,4.47
2022-11-04T10:02:56.074Z,3.95
2022-11-04T10:05:33.178Z,4.13
2022-11-04T10:08:05.805Z,4.35
2022-11-04T10:10:37.222Z,4.45
2022-11-04T10:13:12.896Z,3.85
2022-11-04T10:15:53.188Z,4.57
2022-11-04T10:18:28.448Z,4.32
2022-11-04T10:20:59.513Z,4.05
2022-11-04T10:23:28.857Z,4.28
2022-11-04T10:25:59.412Z,4.13
2022-11-04T10:28:31.380Z,4.35
2022-11-04T10:31:01.149Z,4.50
2022-11-04T10:33:31.852Z,4.50
2022-11-04T10:36:01.834Z,5.05
2022-11-04T10:38:32.906Z,4.60
2022-11-04T10:41:04.490Z,4.72
2022-11-04T10:43:36.989Z,5.00
2022-11-04T10:46:10.968Z,5.05
2022-11-04T10:48:42.550Z,5.22
2022-11-04T10:51:09.967Z,4.53
2022-11-04T10:53:37.708Z,5.50
2022-11-04T10:56:07.901Z,5.07
2022-11-04T10:58:36.321Z,4.93
2022-11-04T11:01:23.230Z,4.60
2022-11-04T11:03:52.023Z,5.60
2022-11-04T11:06:25.502Z,5.20
2022-11-04T11:08:53.462Z,5.43
2022-11-04T11:11:36.089Z,5.15
2022-11-04T11:14:03.713Z,5.55
2022-11-04T11:16:31.838Z,5.68
2022-11-04T11:19:14.356Z,5.57
2022-11-04T11:21:43.510Z,5.80
2022-11-04T11:24:14.437Z,5.20
2022-11-04T11:26:48.006Z,5.82
2022-11-04T11:29:20.781Z,5.40
2022-11-04T11:31:48.410Z,6.05
2022-11-04T11:34:20.208Z,6.03
2022-11-04T11:36:48.123Z,5.57
2022-11-04T11:39:17.474Z,5.22
2022-11-04T11:41:56.864Z,5.85
2022-11-04T11:44:27.253Z,5.63
2022-11-04T11:46:56.114Z,5.50
2022-11-04T11:49:26.042Z,5.45
2022-11-04T11:51:53.463Z,5.60
2022-11-04T11:54:23.676Z,5.43
2022-11-04T11:57:12.690Z,5.38
2022-11-04T12:02:35.090Z,5.28
2022-11-04T12:10:51.305Z,6.60
2022-11-04T12:13:26.417Z,6.60
2022-11-04T12:16:00.977Z,6.50
2022-11-04T12:18:37.611Z,6.82
2022-11-04T12:21:09.650Z,6.53
2022-11-04T12:23:40.201Z,7.18
2022-11-04T12:26:14.132Z,7.13
2022-11-04T12:28:46.833Z,6.93
2022-11-04T12:31:20.625Z,7.18
2022-11-04T12:33:50.532Z,7.20
2022-11-04T12:36:33.268Z,7.97
2022-11-04T12:39:12.413Z,7.07
2022-11-04T12:42:06.811Z,7.00
2022-11-04T12:47:02.167Z,7.68
2022-11-04T12:49:38.370Z,7.97
2022-11-04T12:52:10.428Z,7.70
2022-11-04T12:54:43.781Z,8.43
2022-11-04T12:57:14.364Z,7.85
2022-11-04T12:59:48.604Z,7.55
2022-11-04T13:02:18.785Z,7.93
2022-11-04T13:04:49.986Z,8.52
2022-11-04T13:07:21.668Z,8.32
2022-11-04T13:09:53.943Z,7.28
2022-11-04T13:12:23.066Z,7.78
2022-11-04T13:14:53.140Z,6.90
2022-11-04T13:17:22.939Z,8.65
2022-11-04T13:19:51.734Z,7.43
2022-11-04T13:22:23.049Z,7.18
2022-11-04T13:24:52.978Z,7.03
2022-11-04T13:27:21.748Z,6.85
2022-11-04T13:29:50.826Z,7.57
2022-11-04T13:32:21.849Z,7.18
2022-11-04T13:34:53.048Z,7.32
2022-11-04T13:37:25.172Z,7.72
2022-11-04T13:39:55.165Z,7.35
2022-11-04T13:42:37.317Z,7.03
2022-11-04T13:45:06.744Z,6.80
2022-11-04T13:47:37.338Z,7.97
2022-11-04T13:50:05.081Z,7.53
2022-11-04T13:52:36.218Z,7.85
2022-11-04T13:55:05.121Z,7.45
2022-11-04T13:57:33.301Z,7.65
2022-11-04T14:00:09.375Z,7.45
2022-11-04T14:02:41.240Z,7.22
2022-11-04T14:05:27.499Z,7.05
2022-11-04T14:08:10.820Z,8.05
2022-11-04T14:10:39.298Z,7.40
2022-11-04T14:13:25.490Z,7.68
2022-11-04T14:16:00.085Z,7.25
2022-11-04T14:18:28.482Z,7.47
2022-11-04T14:21:02.677Z,7.78
2022-11-04T14:23:31.684Z,8.43
2022-11-04T14:26:00.413Z,7.75
2022-11-04T14:28:29.514Z,8.23
2022-11-04T14:30:57.850Z,8.35
2022-11-04T14:33:33.420Z,8.43
2022-11-04T14:36:15.793Z,7.70
2022-11-04T14:38:44.773Z,8.88
2022-11-04T14:41:13.529Z,7.97
2022-11-04T14:43:42.580Z,8.50
2022-11-04T14:46:12.344Z,8.05
2022-11-04T14:48:43.842Z,8.73
2022-11-04T14:51:23.073Z,8.30
2022-11-04T14:53:52.277Z,7.90
2022-11-04T14:56:24.243Z,7.95
2022-11-04T14:58:58.849Z,8.27
2022-11-04T15:01:32.875Z,8.70
2022-11-04T15:04:11.992Z,8.05
2022-11-04T15:06:54.387Z,8.60
2022-11-04T15:09:24.779Z,7.93
2022-11-04T15:12:10.685Z,8.25
2022-11-04T15:14:38.275Z,7.75
2022-11-04T15:17:06.026Z,9.23
2022-11-04T15:19:35.352Z,8.73
2022-11-04T15:22:03.656Z,8.45
2022-11-04T15:24:32.587Z,8.15
2022-11-04T15:27:02.078Z,8.52
2022-11-04T15:29:29.501Z,9.00
2022-11-04T15:31:58.213Z,8.35
2022-11-04T15:34:26.921Z,8.45
2022-11-04T15:36:55.675Z,7.65
2022-11-04T15:39:24.460Z,8.45
2022-11-04T15:42:12.344Z,8.63
2022-11-04T15:44:39.833Z,8.50
2022-11-04T15:47:22.976Z,7.68
2022-11-04T15:49:51.965Z,8.13
2022-11-04T15:52:21.130Z,8.50
2022-11-04T15:54:49.469Z,8.55
2022-11-04T15:57:19.299Z,8.38
2022-11-04T15:59:47.426Z,8.02
2022-11-04T16:02:21.738Z,8.52
2022-11-04T16:05:02.199Z,8.45
2022-11-04T16:07:32.307Z,8.52
2022-11-04T16:10:01.160Z,8.40
2022-11-04T16:12:37.087Z,8.88
2022-11-04T16:15:04.720Z,8.68
2022-11-04T16:17:32.479Z,8.73
2022-11-04T16:20:01.444Z,8.18
2022-11-04T16:22:30.368Z,8.43
2022-11-04T16:24:58.727Z,8.25
2022-11-04T16:27:26.312Z,8.70
2022-11-04T16:30:02.354Z,8.68
2022-11-04T16:32:31.104Z,7.57
2022-11-04T16:34:59.931Z,7.78
2022-11-04T16:37:27.362Z,8.05
2022-11-04T16:39:54.765Z,7.47
2022-11-04T16:42:22.969Z,7.43
2022-11-04T16:44:51.057Z,9.02
2022-11-04T16:47:20.125Z,7.95
2022-11-04T16:49:47.554Z,8.43
2022-11-04T16:52:25.409Z,8.90
2022-11-04T16:54:56.044Z,8.75
2022-11-04T16:57:23.973Z,7.88
2022-11-04T16:59:51.330Z,7.88
2022-11-04T17:02:22.187Z,7.50
2022-11-04T17:04:49.771Z,7.53
2022-11-04T17:07:17.148Z,8.40
2022-11-04T17:09:44.521Z,8.60
2022-11-04T17:12:11.860Z,7.88
2022-11-04T17:14:39.283Z,7.85
2022-11-04T17:17:06.859Z,7.72
2022-11-04T17:19:35.733Z,7.50
2022-11-04T17:22:05.045Z,8.38
2022-11-04T17:24:32.705Z,7.82
2022-11-04T17:27:00.119Z,8.30
2022-11-04T17:29:27.579Z,8.10
2022-11-04T17:31:55.709Z,8.43
2022-11-04T17:34:25.789Z,8.80
2022-11-04T17:36:54.613Z,7.55
2022-11-04T17:39:22.027Z,8.88
2022-11-04T17:42:06.830Z,8.18
2022-11-04T17:44:34.201Z,8.18
2022-11-04T17:47:01.562Z,8.05
2022-11-04T17:49:29.483Z,7.90
2022-11-04T17:52:00.560Z,8.52
2022-11-04T17:54:29.227Z,8.02
2022-11-04T17:56:56.784Z,7.40
2022-11-04T17:59:24.805Z,8.52
2022-11-04T18:01:52.312Z,8.20
2022-11-04T18:04:20.531Z,8.25
2022-11-04T18:06:48.234Z,8.98
2022-11-04T18:09:17.317Z,9.13
2022-11-04T18:12:02.974Z,8.45
2022-11-04T18:14:30.399Z,8.27
2022-11-04T18:16:58.103Z,9.68
2022-11-04T18:19:27.069Z,8.93
2022-11-04T18:21:54.646Z,8.68
2022-11-04T18:24:24.320Z,8.65
2022-11-04T18:26:52.106Z,7.90
2022-11-04T18:29:21.245Z,8.18
2022-11-04T18:31:49.834Z,8.68
2022-11-04T18:34:19.312Z,8.05
2022-11-04T18:36:47.317Z,7.85
2022-11-04T18:39:16.126Z,9.10
2022-11-04T18:41:45.633Z,9.05
2022-11-04T18:44:15.098Z,8.90
2022-11-04T18:46:42.544Z,9.00
2022-11-04T18:49:10.506Z,8.95
2022-11-04T18:51:38.000Z,9.30
2022-11-04T18:54:06.680Z,8.98
2022-11-04T18:56:34.417Z,9.27
2022-11-04T18:59:03.797Z,9.77
2022-11-04T19:01:32.289Z,9.70
2022-11-04T19:04:00.321Z,9.75
2022-11-04T19:06:29.271Z,9.32
2022-11-04T19:08:57.030Z,9.40
2022-11-04T19:11:26.044Z,10.20
2022-11-04T19:13:54.295Z,10.85
2022-11-04T19:16:23.564Z,10.80
2022-11-04T19:18:51.092Z,13.85
2022-11-04T19:21:20.323Z,11.50
2022-11-04T19:23:47.953Z,10.75
2022-11-04T19:26:16.745Z,11.80
2022-11-04T19:28:48.621Z,12.05
2022-11-04T19:31:18.032Z,11.63
2022-11-04T19:33:46.999Z,11.32
2022-11-04T19:36:15.492Z,12.43
2022-11-04T19:38:43.629Z,11.75
2022-11-04T19:41:33.185Z,12.43
2022-11-04T19:44:01.244Z,10.52
2022-11-04T19:46:29.057Z,10.80
2022-11-04T19:48:58.201Z,11.45
2022-11-04T19:51:31.627Z,12.05
2022-11-04T19:53:59.648Z,13.10
2022-11-04T19:56:27.376Z,14.00
2022-11-04T19:58:55.073Z,13.18
2022-11-04T20:01:22.544Z,13.68
2022-11-04T20:03:50.935Z,13.07
2022-11-04T20:06:20.168Z,13.48
2022-11-04T20:08:48.891Z,13.00
2022-11-04T20:11:16.643Z,14.13
2022-11-04T20:13:47.094Z,14.32
2022-11-04T20:16:18.591Z,12.52
2022-11-04T20:18:46.885Z,12.88
2022-11-04T20:21:14.604Z,12.20
2022-11-04T20:23:44.021Z,12.77
2022-11-04T20:26:17.582Z,9.98
2022-11-04T20:28:48.257Z,11.43
2022-11-04T20:31:18.151Z,12.18
2022-11-04T20:33:46.019Z,12.20
2022-11-04T20:36:14.235Z,12.10
2022-11-04T20:38:43.069Z,12.30
2022-11-04T20:41:11.170Z,11.65
2022-11-04T20:43:38.968Z,11.95
2022-11-04T20:46:07.656Z,11.38
2022-11-04T20:48:36.047Z,10.80
2022-11-04T20:51:07.332Z,11.70
2022-11-04T20:53:34.839Z,12.85
2022-11-04T20:56:06.395Z,10.55
2022-11-04T20:58:34.537Z,11.15
2022-11-04T21:01:03.074Z,10.63
2022-11-04T21:03:30.566Z,11.45
2022-11-04T21:05:58.209Z,10.40
2022-11-04T21:08:25.568Z,11.00
2022-11-04T21:10:53.374Z,10.98
2022-11-04T21:13:22.524Z,10.90
2022-11-04T21:15:51.764Z,10.90
2022-11-04T21:18:19.197Z,10.93
2022-11-04T21:20:46.589Z,12.13
2022-11-04T21:23:14.640Z,11.40
2022-11-04T21:25:42.557Z,11.80
2022-11-04T21:28:10.470Z,13.48
2022-11-04T21:30:40.482Z,13.00
2022-11-04T21:33:08.071Z,11.85
2022-11-04T21:35:35.896Z,12.10
2022-11-04T21:38:03.394Z,12.20
2022-11-04T21:40:31.083Z,9.57
2022-11-04T21:42:58.493Z,13.05
2022-11-04T21:45:26.238Z,10.82
2022-11-04T21:47:54.946Z,13.45
2022-11-04T21:50:22.354Z,11.05
2022-11-04T21:52:49.764Z,10.48
2022-11-04T21:55:17.148Z,10.55
2022-11-04T21:57:44.477Z,11.05
2022-11-04T22:00:13.904Z,10.88
2022-11-04T22:02:43.439Z,9.52
2022-11-04T22:05:12.660Z,10.25
2022-11-04T22:07:57.516Z,10.60
2022-11-04T22:10:25.726Z,10.50
2022-11-04T22:12:53.194Z,10.07
2022-11-04T22:15:34.509Z,10.35
2022-11-04T22:18:01.909Z,10.45
2022-11-04T22:20:30.633Z,10.95
2022-11-04T22:22:58.179Z,10.35
2022-11-04T22:25:25.555Z,10.38
2022-11-04T22:27:52.936Z,11.32
2022-11-04T22:30:20.345Z,10.32
2022-11-04T22:32:47.723Z,11.63
2022-11-04T22:35:15.180Z,10.68
2022-11-04T22:37:43.952Z,11.23
2022-11-04T22:40:11.753Z,10.88
2022-11-04T22:42:39.163Z,11.30
2022-11-04T22:45:08.378Z,12.35
2022-11-04T22:47:37.556Z,11.85
2022-11-04T22:50:05.288Z,11.73
2022-11-04T22:52:32.711Z,11.13
2022-11-04T22:55:01.401Z,12.32
2022-11-04T22:57:28.842Z,10.68
2022-11-04T22:59:56.261Z,10.48
2022-11-04T23:02:23.814Z,10.88
2022-11-04T23:04:51.233Z,9.95
2022-11-04T23:07:18.657Z,10.18
2022-11-04T23:10:03.750Z,10.43
2022-11-04T23:12:49.771Z,9.63
2022-11-04T23:15:34.832Z,9.48
2022-11-04T23:18:19.657Z,10.32
2022-11-04T23:21:07.173Z,8.95
2022-11-04T23:23:52.173Z,9.75
2022-11-04T23:26:22.477Z,9.73
2022-11-04T23:29:12.902Z,9.20
2022-11-04T23:31:40.596Z,9.40
2022-11-04T23:34:25.428Z,9.77
2022-11-04T23:37:10.076Z,9.60
2022-11-04T23:39:37.432Z,10.10
2022-11-04T23:42:20.062Z,9.93
2022-11-04T23:45:07.325Z,9.57
2022-11-04T23:47:53.028Z,9.60
2022-11-04T23:50:38.248Z,9.77
2022-11-04T23:53:23.518Z,10.25
2022-11-04T23:56:08.837Z,10.32
2022-11-04T23:58:53.648Z,9.85
